Huvudsida
METAR-TAF:

METAR-TAF

Flygplatser :

Honningsvågs flygplats. Valan

Honningsvåg, Norge

latitud: 71-01N, longitud: 025-59E, höjd: 1 m

Aktuellt väderrapport

Denna rapport gjordes för 14 minuter sedan, klockan 19:20 UTC
Vind 3 kt från nord/nordost
Temperatur 9°C
Fuktighet 81%
Tryck 1008 hPa
Sikt 10 km eller mer
Inga moln under 1 500 m eller inga cumulonimbus

METAR: ENHV 251920Z 03003KT CAVOK 09/06 Q1008

Tid: 21:34 (19:34 UTC)


TAF: saknas

Aktuella väderrapporter och prognoser från 4000 flygplatser (METAR- och TAF-rapporter).

De tillgängliga stationerna syns som gula och röda prickar på kartan.

För musen över prickarna för att se namnen på stationerna.

Klicka sedan för att få väderrapporter och prognoser.

För att ändra kartan: Klicka på de gröna knapparna med ett svart kors på för att zooma in; den gröna knappen med ett streck på för att zooma ut; eller på de gröna pilarna för angränsande kartor.


METAR-TAF: